West Byfleet, United Kingdom
Current Conditions -  °F | °C
As of 9:20 AM on Saturday 01 Nov 2014 (Local Time) from EGLL Reporting Station
Scattered Clouds Scattered Clouds  
Wind Chill: 57°   Ceiling: Unl
Heat Index: 57°   Visibility: 6mi
Dew Point: 54°   Wind: 10mph
Humidity: 88%   Direction: 240°WSW
Pressure: 30"   Gusts: NA
Location:  51.33°N, 0.51°W
Report Text: EGLL 010920Z 24009KT 9999 FEW017 SCT028 14/12 Q1016
Loading
Personal Weather Stations






























Interactive Weather Map
Tropical Storm Tracking
New forecast layout! Learn more

10-Day Weather Forecast

Advertisements
Track Severe Weather on mobile